HAKGR LXGB-LFML
Flight info
| Callsign | HAKGR |
|---|---|
| Flight time | 2h 50m |
| Altitude | 23000 |
| Route | PIMOS M985 BCN N870 DIBER UN870 SOSUR |
| Aircraft | B350/L-V/N |
Departure
| Time | 2026-04-29 12:33 |
|---|---|
| Airport | Gibraltar Airport (LXGB) |
Arrival
| Time | 2026-04-29 15:23 |
|---|---|
| Airport | Marseille Provence Airport (LFML) |
| Time | Latitude | Longitude | Altitude | Speed | Heading |
|---|---|---|---|---|---|
| 2026-04-29 12:14 | 36.15299 | -5.34404 | 12 ft | 0 kts | 316° |
| 2026-04-29 12:31 | 36.15268 | -5.34439 | 12 ft | 15 kts | 194° |
| 2026-04-29 12:31 | 36.15237 | -5.34372 | 10 ft | 16 kts | 86° |
| 2026-04-29 12:31 | 36.15243 | -5.34265 | 11 ft | 8 kts | 87° |
| 2026-04-29 12:31 | 36.15187 | -5.34228 | 11 ft | 12 kts | 178° |
| 2026-04-29 12:32 | 36.15145 | -5.34254 | 11 ft | 0 kts | 270° |
| 2026-04-29 12:32 | 36.15145 | -5.34262 | 11 ft | 11 kts | 268° |
| 2026-04-29 12:32 | 36.15133 | -5.34622 | 15 ft | 71 kts | 266° |
| 2026-04-29 12:33 | 36.15105 | -5.35434 | 72 ft | 111 kts | 269° |
| 2026-04-29 12:33 | 36.15116 | -5.36426 | 401 ft | 117 kts | 260° |
| 2026-04-29 12:33 | 36.14788 | -5.37337 | 779 ft | 123 kts | 220° |
| 2026-04-29 12:33 | 36.13975 | -5.37733 | 1156 ft | 130 kts | 192° |
| 2026-04-29 12:34 | 36.13035 | -5.37929 | 1466 ft | 145 kts | 190° |
| 2026-04-29 12:34 | 36.12021 | -5.38080 | 1895 ft | 146 kts | 192° |
| 2026-04-29 12:34 | 36.10996 | -5.38217 | 2321 ft | 150 kts | 190° |
| 2026-04-29 12:34 | 36.09978 | -5.38336 | 2802 ft | 148 kts | 189° |
| 2026-04-29 12:35 | 36.08930 | -5.38418 | 3194 ft | 155 kts | 188° |
| 2026-04-29 12:35 | 36.07826 | -5.38557 | 3543 ft | 162 kts | 190° |
| 2026-04-29 12:35 | 36.06696 | -5.38769 | 3866 ft | 167 kts | 193° |
| 2026-04-29 12:35 | 36.05502 | -5.39005 | 4025 ft | 181 kts | 191° |
| 2026-04-29 12:36 | 36.04209 | -5.39233 | 4068 ft | 194 kts | 189° |
| 2026-04-29 12:36 | 36.02863 | -5.39174 | 4157 ft | 198 kts | 160° |
| 2026-04-29 12:36 | 36.01777 | -5.38125 | 4468 ft | 203 kts | 130° |
| 2026-04-29 12:36 | 36.01288 | -5.36493 | 4774 ft | 208 kts | 97° |
| 2026-04-29 12:37 | 36.01562 | -5.34743 | 5075 ft | 209 kts | 72° |
| 2026-04-29 12:37 | 36.02075 | -5.33051 | 5381 ft | 211 kts | 71° |
| 2026-04-29 12:37 | 36.02595 | -5.31341 | 5682 ft | 214 kts | 72° |
| 2026-04-29 12:37 | 36.03106 | -5.29632 | 5987 ft | 215 kts | 72° |
| 2026-04-29 12:38 | 36.03623 | -5.27893 | 6293 ft | 216 kts | 72° |
| 2026-04-29 12:38 | 36.04145 | -5.26143 | 6584 ft | 218 kts | 72° |
| 2026-04-29 12:38 | 36.04669 | -5.24384 | 6869 ft | 219 kts | 72° |
| 2026-04-29 12:38 | 36.05195 | -5.22615 | 7159 ft | 220 kts | 72° |
| 2026-04-29 12:39 | 36.05725 | -5.20838 | 7453 ft | 220 kts | 72° |
| 2026-04-29 12:39 | 36.06255 | -5.19055 | 7750 ft | 221 kts | 72° |
| 2026-04-29 12:39 | 36.06785 | -5.17270 | 8047 ft | 222 kts | 72° |
| 2026-04-29 12:39 | 36.07317 | -5.15479 | 8349 ft | 222 kts | 72° |
| 2026-04-29 12:40 | 36.07850 | -5.13683 | 8656 ft | 223 kts | 72° |
| 2026-04-29 12:40 | 36.08387 | -5.11873 | 8974 ft | 225 kts | 72° |
| 2026-04-29 12:40 | 36.08927 | -5.10053 | 9274 ft | 226 kts | 72° |
| 2026-04-29 12:40 | 36.09463 | -5.08243 | 9575 ft | 227 kts | 72° |
| 2026-04-29 12:41 | 36.10008 | -5.06403 | 9890 ft | 227 kts | 72° |
| 2026-04-29 12:41 | 36.10552 | -5.04565 | 10171 ft | 228 kts | 72° |
| 2026-04-29 12:41 | 36.11098 | -5.02719 | 10458 ft | 229 kts | 72° |
| 2026-04-29 12:41 | 36.11645 | -5.00865 | 10748 ft | 229 kts | 72° |
| 2026-04-29 12:42 | 36.12194 | -4.99008 | 11044 ft | 231 kts | 72° |
| 2026-04-29 12:42 | 36.12749 | -4.97125 | 11335 ft | 235 kts | 72° |
| 2026-04-29 12:42 | 36.13314 | -4.95208 | 11632 ft | 239 kts | 73° |
| 2026-04-29 12:42 | 36.13885 | -4.93268 | 11929 ft | 241 kts | 73° |
| 2026-04-29 12:43 | 36.14458 | -4.91328 | 12232 ft | 240 kts | 73° |
| 2026-04-29 12:43 | 36.15213 | -4.89500 | 12537 ft | 241 kts | 50° |
| 2026-04-29 12:43 | 36.16500 | -4.88191 | 12848 ft | 240 kts | 32° |
| 2026-04-29 12:43 | 36.17920 | -4.87086 | 13167 ft | 242 kts | 31° |
| 2026-04-29 12:44 | 36.19355 | -4.85980 | 13479 ft | 243 kts | 31° |
| 2026-04-29 12:44 | 36.20787 | -4.84863 | 13778 ft | 243 kts | 31° |
| 2026-04-29 12:44 | 36.22197 | -4.83755 | 14060 ft | 243 kts | 31° |
| 2026-04-29 12:44 | 36.23618 | -4.82642 | 14334 ft | 240 kts | 31° |
| 2026-04-29 12:45 | 36.25021 | -4.81543 | 14614 ft | 237 kts | 31° |
| 2026-04-29 12:45 | 36.26410 | -4.80455 | 14895 ft | 235 kts | 31° |
| 2026-04-29 12:45 | 36.27789 | -4.79375 | 15177 ft | 234 kts | 31° |
| 2026-04-29 12:45 | 36.29162 | -4.78298 | 15463 ft | 233 kts | 30° |
| 2026-04-29 12:46 | 36.30527 | -4.77227 | 15751 ft | 231 kts | 30° |
| 2026-04-29 12:46 | 36.31883 | -4.76163 | 16044 ft | 231 kts | 30° |
| 2026-04-29 12:46 | 36.33237 | -4.75100 | 16339 ft | 230 kts | 30° |
| 2026-04-29 12:46 | 36.34591 | -4.74037 | 16641 ft | 232 kts | 30° |
| 2026-04-29 12:47 | 36.35965 | -4.72957 | 16949 ft | 235 kts | 30° |
| 2026-04-29 12:47 | 36.37356 | -4.71863 | 17264 ft | 238 kts | 30° |
| 2026-04-29 12:47 | 36.38760 | -4.70759 | 17581 ft | 239 kts | 30° |
| 2026-04-29 12:47 | 36.40170 | -4.69649 | 17900 ft | 241 kts | 29° |
| 2026-04-29 12:48 | 36.41571 | -4.68546 | 18220 ft | 242 kts | 29° |
| 2026-04-29 12:48 | 36.42994 | -4.67425 | 18504 ft | 243 kts | 29° |
| 2026-04-29 12:48 | 36.44425 | -4.66298 | 18781 ft | 244 kts | 29° |
| 2026-04-29 12:48 | 36.45867 | -4.65161 | 19066 ft | 245 kts | 29° |
| 2026-04-29 12:49 | 36.47308 | -4.64024 | 19343 ft | 246 kts | 28° |
| 2026-04-29 12:49 | 36.48764 | -4.62876 | 19628 ft | 247 kts | 28° |
| 2026-04-29 12:49 | 36.50217 | -4.61729 | 19912 ft | 248 kts | 28° |
| 2026-04-29 12:49 | 36.51675 | -4.60577 | 20197 ft | 249 kts | 28° |
| 2026-04-29 12:50 | 36.53138 | -4.59422 | 20497 ft | 249 kts | 28° |
| 2026-04-29 12:50 | 36.54601 | -4.58265 | 20792 ft | 249 kts | 28° |
| 2026-04-29 12:50 | 36.56049 | -4.57120 | 21094 ft | 250 kts | 28° |
| 2026-04-29 12:50 | 36.57521 | -4.55955 | 21393 ft | 251 kts | 28° |
| 2026-04-29 12:51 | 36.58996 | -4.54789 | 21697 ft | 251 kts | 28° |
| 2026-04-29 12:51 | 36.60473 | -4.53618 | 22003 ft | 251 kts | 28° |
| 2026-04-29 12:51 | 36.61948 | -4.52450 | 22308 ft | 251 kts | 27° |
| 2026-04-29 12:51 | 36.63418 | -4.51285 | 22620 ft | 251 kts | 27° |
| 2026-04-29 12:52 | 36.64889 | -4.50119 | 22919 ft | 251 kts | 27° |
| 2026-04-29 12:52 | 36.66401 | -4.48922 | 22942 ft | 263 kts | 27° |
| 2026-04-29 12:52 | 36.67973 | -4.47675 | 22942 ft | 272 kts | 28° |
| 2026-04-29 12:52 | 36.69594 | -4.46386 | 22944 ft | 280 kts | 28° |
| 2026-04-29 12:53 | 36.71247 | -4.45070 | 22940 ft | 283 kts | 28° |
| 2026-04-29 12:53 | 36.72900 | -4.43752 | 22940 ft | 281 kts | 28° |
| 2026-04-29 12:53 | 36.74520 | -4.42464 | 22938 ft | 279 kts | 28° |
| 2026-04-29 12:53 | 36.76151 | -4.41167 | 22938 ft | 277 kts | 28° |
| 2026-04-29 12:54 | 36.77778 | -4.39873 | 22936 ft | 277 kts | 28° |
| 2026-04-29 12:54 | 36.79403 | -4.38579 | 22934 ft | 276 kts | 28° |
| 2026-04-29 12:54 | 36.81017 | -4.37286 | 22925 ft | 276 kts | 30° |
| 2026-04-29 12:54 | 36.82457 | -4.35703 | 22934 ft | 276 kts | 42° |
| 2026-04-29 12:55 | 36.83795 | -4.33985 | 22930 ft | 276 kts | 43° |
| 2026-04-29 12:55 | 36.85137 | -4.32268 | 22927 ft | 276 kts | 42° |
| 2026-04-29 12:55 | 36.86488 | -4.30563 | 22930 ft | 276 kts | 42° |
| 2026-04-29 12:55 | 36.87837 | -4.28861 | 22925 ft | 276 kts | 42° |
| 2026-04-29 12:56 | 36.89186 | -4.27150 | 22923 ft | 276 kts | 42° |
| 2026-04-29 12:56 | 36.90538 | -4.25436 | 22930 ft | 277 kts | 42° |
| 2026-04-29 12:56 | 36.91890 | -4.23720 | 22948 ft | 277 kts | 42° |
| 2026-04-29 12:56 | 36.93247 | -4.22000 | 22928 ft | 277 kts | 42° |
| 2026-04-29 12:57 | 36.94599 | -4.20281 | 22931 ft | 278 kts | 42° |
| 2026-04-29 12:57 | 36.95957 | -4.18556 | 22931 ft | 278 kts | 42° |
| 2026-04-29 12:57 | 36.97295 | -4.16854 | 22927 ft | 277 kts | 42° |
| 2026-04-29 12:57 | 36.98648 | -4.15134 | 22926 ft | 278 kts | 42° |
| 2026-04-29 12:58 | 37.00003 | -4.13410 | 22927 ft | 278 kts | 42° |
| 2026-04-29 12:58 | 37.01363 | -4.11679 | 22921 ft | 278 kts | 42° |
| 2026-04-29 12:58 | 37.02721 | -4.09948 | 22921 ft | 278 kts | 42° |
| 2026-04-29 12:58 | 37.04073 | -4.08224 | 22920 ft | 278 kts | 42° |
| 2026-04-29 12:59 | 37.05426 | -4.06499 | 22915 ft | 278 kts | 42° |
| 2026-04-29 12:59 | 37.06780 | -4.04772 | 22918 ft | 277 kts | 42° |
| 2026-04-29 12:59 | 37.08132 | -4.03046 | 22916 ft | 278 kts | 42° |
| 2026-04-29 12:59 | 37.09488 | -4.01314 | 22917 ft | 279 kts | 42° |
| 2026-04-29 13:00 | 37.10385 | -4.00167 | 22903 ft | 278 kts | 42° |
| 2026-04-29 13:00 | 37.12201 | -3.97845 | 22912 ft | 278 kts | 43° |
| 2026-04-29 13:00 | 37.13556 | -3.96112 | 22911 ft | 279 kts | 43° |
| 2026-04-29 13:00 | 37.14915 | -3.94372 | 22912 ft | 280 kts | 43° |
| 2026-04-29 13:01 | 37.16278 | -3.92626 | 22912 ft | 280 kts | 43° |
| 2026-04-29 13:01 | 37.17637 | -3.90883 | 22911 ft | 280 kts | 43° |
| 2026-04-29 13:01 | 37.18982 | -3.89160 | 22910 ft | 280 kts | 43° |
| 2026-04-29 13:01 | 37.20360 | -3.87392 | 22909 ft | 279 kts | 43° |
| 2026-04-29 13:02 | 37.21702 | -3.85668 | 22908 ft | 279 kts | 43° |
| 2026-04-29 13:02 | 37.23061 | -3.83924 | 22908 ft | 279 kts | 43° |
| 2026-04-29 13:02 | 37.24418 | -3.82180 | 22912 ft | 279 kts | 43° |
| 2026-04-29 13:02 | 37.25772 | -3.80438 | 22903 ft | 278 kts | 43° |
| 2026-04-29 13:03 | 37.27121 | -3.78702 | 22915 ft | 277 kts | 43° |
| 2026-04-29 13:03 | 37.28470 | -3.76966 | 22903 ft | 277 kts | 43° |
| 2026-04-29 13:03 | 37.29813 | -3.75236 | 22904 ft | 277 kts | 43° |
| 2026-04-29 13:03 | 37.31160 | -3.73501 | 22903 ft | 277 kts | 43° |
| 2026-04-29 13:04 | 37.32503 | -3.71770 | 22904 ft | 277 kts | 43° |
| 2026-04-29 13:04 | 37.33829 | -3.70059 | 22905 ft | 277 kts | 43° |
| 2026-04-29 13:04 | 37.35171 | -3.68327 | 22901 ft | 277 kts | 43° |
| 2026-04-29 13:04 | 37.36516 | -3.66590 | 22898 ft | 277 kts | 43° |
| 2026-04-29 13:05 | 37.37860 | -3.64852 | 22911 ft | 277 kts | 43° |
| 2026-04-29 13:05 | 37.39201 | -3.63119 | 22908 ft | 276 kts | 43° |
| 2026-04-29 13:05 | 37.40546 | -3.61380 | 22916 ft | 277 kts | 43° |
| 2026-04-29 13:05 | 37.41885 | -3.59646 | 22905 ft | 276 kts | 43° |
| 2026-04-29 13:06 | 37.43224 | -3.57913 | 22921 ft | 277 kts | 43° |
| 2026-04-29 13:06 | 37.44566 | -3.56173 | 22913 ft | 276 kts | 43° |
| 2026-04-29 13:06 | 37.45906 | -3.54437 | 22914 ft | 277 kts | 43° |
| 2026-04-29 13:06 | 37.47249 | -3.52694 | 22913 ft | 277 kts | 43° |
| 2026-04-29 13:07 | 37.48592 | -3.50952 | 22920 ft | 278 kts | 43° |
| 2026-04-29 13:07 | 37.49940 | -3.49201 | 22914 ft | 278 kts | 43° |
| 2026-04-29 13:07 | 37.51269 | -3.47474 | 22916 ft | 278 kts | 43° |
| 2026-04-29 13:07 | 37.52617 | -3.45721 | 22917 ft | 278 kts | 43° |
| 2026-04-29 13:08 | 37.53963 | -3.43971 | 22916 ft | 278 kts | 43° |
| 2026-04-29 13:08 | 37.55310 | -3.42218 | 22906 ft | 277 kts | 43° |
| 2026-04-29 13:08 | 37.56651 | -3.40472 | 22908 ft | 277 kts | 43° |
| 2026-04-29 13:08 | 37.57993 | -3.38723 | 22903 ft | 277 kts | 43° |
| 2026-04-29 13:09 | 37.59315 | -3.36999 | 22911 ft | 277 kts | 43° |
| 2026-04-29 13:09 | 37.60652 | -3.35256 | 22903 ft | 276 kts | 43° |
| 2026-04-29 13:09 | 37.61990 | -3.33510 | 22903 ft | 276 kts | 43° |
| 2026-04-29 13:09 | 37.63324 | -3.31768 | 22904 ft | 276 kts | 44° |
| 2026-04-29 13:10 | 37.64660 | -3.30023 | 22900 ft | 276 kts | 44° |
| 2026-04-29 13:10 | 37.65996 | -3.28277 | 22899 ft | 276 kts | 44° |
| 2026-04-29 13:10 | 37.67332 | -3.26528 | 22925 ft | 276 kts | 44° |
| 2026-04-29 13:10 | 37.68668 | -3.24781 | 22910 ft | 277 kts | 44° |
| 2026-04-29 13:11 | 37.70005 | -3.23029 | 22907 ft | 277 kts | 44° |
| 2026-04-29 13:11 | 37.71341 | -3.21280 | 22908 ft | 277 kts | 44° |
| 2026-04-29 13:11 | 37.72678 | -3.19528 | 22906 ft | 277 kts | 44° |
| 2026-04-29 13:11 | 37.74015 | -3.17774 | 22909 ft | 277 kts | 44° |
| 2026-04-29 13:12 | 37.75351 | -3.16021 | 22912 ft | 277 kts | 44° |
| 2026-04-29 13:12 | 37.76691 | -3.14262 | 22913 ft | 277 kts | 44° |
| 2026-04-29 13:12 | 37.78027 | -3.12507 | 22914 ft | 277 kts | 44° |
| 2026-04-29 13:12 | 37.79365 | -3.10747 | 22914 ft | 277 kts | 44° |
| 2026-04-29 13:13 | 37.80703 | -3.08987 | 22914 ft | 278 kts | 44° |
| 2026-04-29 13:13 | 37.82046 | -3.07221 | 22911 ft | 279 kts | 44° |
| 2026-04-29 13:13 | 37.83369 | -3.05477 | 22906 ft | 278 kts | 44° |
| 2026-04-29 13:13 | 37.84708 | -3.03715 | 22904 ft | 277 kts | 44° |
| 2026-04-29 13:14 | 37.86043 | -3.01956 | 22904 ft | 277 kts | 44° |
| 2026-04-29 13:14 | 37.87379 | -3.00193 | 22906 ft | 277 kts | 44° |
| 2026-04-29 13:14 | 37.88717 | -2.98427 | 22911 ft | 277 kts | 44° |
| 2026-04-29 13:14 | 37.90047 | -2.96671 | 22919 ft | 277 kts | 44° |
| 2026-04-29 13:15 | 37.91385 | -2.94904 | 22908 ft | 278 kts | 44° |
| 2026-04-29 13:15 | 37.92722 | -2.93137 | 22915 ft | 278 kts | 44° |
| 2026-04-29 13:15 | 37.94061 | -2.91365 | 22917 ft | 278 kts | 44° |
| 2026-04-29 13:15 | 37.95396 | -2.89599 | 22918 ft | 277 kts | 44° |
| 2026-04-29 13:16 | 37.96282 | -2.88426 | 22915 ft | 277 kts | 44° |
| 2026-04-29 13:16 | 37.97613 | -2.86663 | 22916 ft | 276 kts | 44° |
| 2026-04-29 13:16 | 37.98938 | -2.84908 | 22922 ft | 275 kts | 44° |
| 2026-04-29 13:16 | 38.00260 | -2.83155 | 22916 ft | 275 kts | 44° |
| 2026-04-29 13:17 | 38.01583 | -2.81400 | 22920 ft | 275 kts | 44° |
| 2026-04-29 13:17 | 38.02897 | -2.79649 | 22917 ft | 273 kts | 44° |
| 2026-04-29 13:17 | 38.04210 | -2.77911 | 22920 ft | 273 kts | 44° |
| 2026-04-29 13:17 | 38.05528 | -2.76162 | 22917 ft | 275 kts | 44° |
| 2026-04-29 13:18 | 38.06848 | -2.74405 | 22926 ft | 275 kts | 44° |
| 2026-04-29 13:18 | 38.08168 | -2.72648 | 22928 ft | 275 kts | 44° |
| 2026-04-29 13:18 | 38.09489 | -2.70889 | 22926 ft | 275 kts | 44° |
| 2026-04-29 13:18 | 38.10812 | -2.69129 | 22928 ft | 275 kts | 44° |
| 2026-04-29 13:19 | 38.12132 | -2.67368 | 22926 ft | 275 kts | 44° |
| 2026-04-29 13:19 | 38.13451 | -2.65609 | 22926 ft | 274 kts | 44° |
| 2026-04-29 13:19 | 38.14751 | -2.63875 | 22925 ft | 274 kts | 44° |
| 2026-04-29 13:19 | 38.16070 | -2.62115 | 22925 ft | 274 kts | 44° |
| 2026-04-29 13:20 | 38.17384 | -2.60360 | 22928 ft | 274 kts | 44° |
| 2026-04-29 13:20 | 38.18701 | -2.58599 | 22921 ft | 275 kts | 44° |
| 2026-04-29 13:20 | 38.20018 | -2.56838 | 22930 ft | 275 kts | 44° |
| 2026-04-29 13:20 | 38.21339 | -2.55071 | 22933 ft | 276 kts | 45° |
| 2026-04-29 13:21 | 38.22657 | -2.53307 | 22927 ft | 274 kts | 45° |
| 2026-04-29 13:21 | 38.23973 | -2.51544 | 22929 ft | 274 kts | 45° |
| 2026-04-29 13:21 | 38.25290 | -2.49778 | 22930 ft | 275 kts | 45° |
| 2026-04-29 13:21 | 38.26608 | -2.48011 | 22928 ft | 275 kts | 45° |
| 2026-04-29 13:22 | 38.27925 | -2.46245 | 22929 ft | 275 kts | 44° |
| 2026-04-29 13:22 | 38.29240 | -2.44480 | 22930 ft | 275 kts | 45° |
| 2026-04-29 13:22 | 38.30545 | -2.42726 | 22930 ft | 275 kts | 45° |
| 2026-04-29 13:22 | 38.31863 | -2.40955 | 22935 ft | 276 kts | 45° |
| 2026-04-29 13:23 | 38.33184 | -2.39179 | 22930 ft | 276 kts | 45° |
| 2026-04-29 13:23 | 38.34501 | -2.37406 | 22929 ft | 276 kts | 45° |
| 2026-04-29 13:23 | 38.35818 | -2.35632 | 22933 ft | 275 kts | 45° |
| 2026-04-29 13:23 | 38.37021 | -2.33742 | 22929 ft | 274 kts | 51° |
| 2026-04-29 13:24 | 38.38201 | -2.31833 | 22924 ft | 274 kts | 50° |
| 2026-04-29 13:24 | 38.39392 | -2.29928 | 22924 ft | 275 kts | 50° |
| 2026-04-29 13:24 | 38.40580 | -2.28011 | 22917 ft | 275 kts | 51° |
| 2026-04-29 13:24 | 38.41762 | -2.26092 | 22919 ft | 275 kts | 51° |
| 2026-04-29 13:25 | 38.42943 | -2.24175 | 22923 ft | 275 kts | 51° |
| 2026-04-29 13:25 | 38.45312 | -2.20336 | 22923 ft | 275 kts | 51° |
| 2026-04-29 13:25 | 38.46496 | -2.18414 | 22923 ft | 275 kts | 51° |
| 2026-04-29 13:26 | 38.47680 | -2.16491 | 22919 ft | 275 kts | 51° |
| 2026-04-29 13:26 | 38.48845 | -2.14597 | 22921 ft | 275 kts | 51° |
| 2026-04-29 13:26 | 38.50029 | -2.12673 | 22922 ft | 275 kts | 51° |
| 2026-04-29 13:26 | 38.51209 | -2.10752 | 22921 ft | 275 kts | 51° |
| 2026-04-29 13:27 | 38.52392 | -2.08826 | 22922 ft | 275 kts | 51° |
| 2026-04-29 13:27 | 38.53572 | -2.06905 | 22922 ft | 275 kts | 51° |
| 2026-04-29 13:27 | 38.54754 | -2.04980 | 22921 ft | 275 kts | 51° |
| 2026-04-29 13:27 | 38.55936 | -2.03055 | 22921 ft | 275 kts | 51° |
| 2026-04-29 13:28 | 38.57116 | -2.01130 | 22921 ft | 275 kts | 51° |
| 2026-04-29 13:28 | 38.58296 | -1.99204 | 22918 ft | 275 kts | 51° |
| 2026-04-29 13:28 | 38.59476 | -1.97278 | 22914 ft | 275 kts | 51° |
| 2026-04-29 13:28 | 38.60652 | -1.95356 | 22914 ft | 275 kts | 51° |
| 2026-04-29 13:29 | 38.61834 | -1.93425 | 22918 ft | 275 kts | 51° |
| 2026-04-29 13:29 | 38.63012 | -1.91497 | 22919 ft | 275 kts | 51° |
| 2026-04-29 13:29 | 38.64191 | -1.89568 | 22923 ft | 275 kts | 51° |
| 2026-04-29 13:29 | 38.65369 | -1.87638 | 22920 ft | 275 kts | 51° |
| 2026-04-29 13:30 | 38.66551 | -1.85702 | 22919 ft | 275 kts | 51° |
| 2026-04-29 13:30 | 38.67728 | -1.83771 | 22924 ft | 275 kts | 51° |
| 2026-04-29 13:30 | 38.68907 | -1.81838 | 22922 ft | 275 kts | 51° |
| 2026-04-29 13:30 | 38.70085 | -1.79904 | 22923 ft | 276 kts | 51° |
| 2026-04-29 13:31 | 38.71249 | -1.77993 | 22925 ft | 275 kts | 51° |
| 2026-04-29 13:31 | 38.72426 | -1.76058 | 22925 ft | 275 kts | 51° |
| 2026-04-29 13:31 | 38.73603 | -1.74121 | 22926 ft | 276 kts | 51° |
| 2026-04-29 13:31 | 38.74781 | -1.72181 | 22926 ft | 275 kts | 51° |
| 2026-04-29 13:32 | 38.75956 | -1.70245 | 22927 ft | 275 kts | 51° |
| 2026-04-29 13:32 | 38.77132 | -1.68307 | 22928 ft | 275 kts | 51° |
| 2026-04-29 13:32 | 38.78311 | -1.66363 | 22926 ft | 276 kts | 51° |
| 2026-04-29 13:32 | 38.79486 | -1.64423 | 22925 ft | 276 kts | 51° |
| 2026-04-29 13:33 | 38.80663 | -1.62480 | 22920 ft | 276 kts | 51° |
| 2026-04-29 13:33 | 38.81839 | -1.60536 | 22918 ft | 275 kts | 51° |
| 2026-04-29 13:33 | 38.83012 | -1.58598 | 22919 ft | 276 kts | 51° |
| 2026-04-29 13:33 | 38.84187 | -1.56654 | 22918 ft | 275 kts | 51° |
| 2026-04-29 13:34 | 38.85362 | -1.54708 | 22923 ft | 275 kts | 51° |
| 2026-04-29 13:34 | 38.86521 | -1.52789 | 22921 ft | 275 kts | 51° |
| 2026-04-29 13:34 | 38.87694 | -1.50844 | 22908 ft | 275 kts | 52° |
| 2026-04-29 13:34 | 38.88868 | -1.48897 | 22921 ft | 276 kts | 52° |
| 2026-04-29 13:35 | 38.90044 | -1.46947 | 22917 ft | 276 kts | 52° |
| 2026-04-29 13:35 | 38.91216 | -1.45001 | 22915 ft | 276 kts | 52° |
| 2026-04-29 13:35 | 38.92389 | -1.43051 | 22914 ft | 276 kts | 52° |
| 2026-04-29 13:35 | 38.93561 | -1.41102 | 22914 ft | 276 kts | 52° |
| 2026-04-29 13:36 | 38.94735 | -1.39150 | 22911 ft | 276 kts | 52° |
| 2026-04-29 13:36 | 38.95907 | -1.37200 | 22911 ft | 276 kts | 52° |
| 2026-04-29 13:36 | 38.97078 | -1.35250 | 22913 ft | 276 kts | 52° |
| 2026-04-29 13:36 | 38.98253 | -1.33291 | 22913 ft | 276 kts | 52° |
| 2026-04-29 13:37 | 38.99424 | -1.31339 | 22915 ft | 276 kts | 52° |
| 2026-04-29 13:37 | 39.00597 | -1.29382 | 22916 ft | 276 kts | 52° |
| 2026-04-29 13:37 | 39.01754 | -1.27450 | 22916 ft | 276 kts | 52° |
| 2026-04-29 13:37 | 39.02927 | -1.25492 | 22915 ft | 276 kts | 52° |
| 2026-04-29 13:38 | 39.04099 | -1.23531 | 22916 ft | 277 kts | 52° |
| 2026-04-29 13:38 | 39.05276 | -1.21563 | 22920 ft | 276 kts | 52° |
| 2026-04-29 13:38 | 39.06447 | -1.19603 | 22919 ft | 276 kts | 52° |
| 2026-04-29 13:38 | 39.07619 | -1.17641 | 22918 ft | 276 kts | 52° |
| 2026-04-29 13:39 | 39.08788 | -1.15683 | 22917 ft | 276 kts | 52° |
| 2026-04-29 13:39 | 39.09955 | -1.13727 | 22910 ft | 275 kts | 53° |
| 2026-04-29 13:39 | 39.11120 | -1.11771 | 22910 ft | 275 kts | 53° |
| 2026-04-29 13:39 | 39.12282 | -1.09821 | 22918 ft | 274 kts | 53° |
| 2026-04-29 13:40 | 39.13442 | -1.07873 | 22920 ft | 274 kts | 53° |
| 2026-04-29 13:40 | 39.14586 | -1.05950 | 22920 ft | 273 kts | 53° |
| 2026-04-29 13:40 | 39.15741 | -1.04007 | 22922 ft | 273 kts | 53° |
| 2026-04-29 13:40 | 39.16899 | -1.02059 | 22923 ft | 274 kts | 53° |
| 2026-04-29 13:41 | 39.18056 | -1.00111 | 22918 ft | 274 kts | 53° |
| 2026-04-29 13:41 | 39.19212 | -0.98165 | 22919 ft | 274 kts | 53° |
| 2026-04-29 13:41 | 39.20370 | -0.96213 | 22917 ft | 274 kts | 53° |
| 2026-04-29 13:41 | 39.21524 | -0.94265 | 22921 ft | 274 kts | 53° |
| 2026-04-29 13:42 | 39.22681 | -0.92313 | 22921 ft | 274 kts | 53° |
| 2026-04-29 13:42 | 39.23836 | -0.90362 | 22926 ft | 274 kts | 53° |
| 2026-04-29 13:42 | 39.24992 | -0.88409 | 22927 ft | 273 kts | 53° |
| 2026-04-29 13:42 | 39.26143 | -0.86462 | 22924 ft | 273 kts | 53° |
| 2026-04-29 13:43 | 39.27297 | -0.84511 | 22918 ft | 273 kts | 54° |
| 2026-04-29 13:43 | 39.28448 | -0.82562 | 22918 ft | 273 kts | 53° |
| 2026-04-29 13:43 | 39.29599 | -0.80611 | 22923 ft | 273 kts | 53° |
| 2026-04-29 13:43 | 39.30752 | -0.78658 | 22923 ft | 274 kts | 53° |
| 2026-04-29 13:44 | 39.31905 | -0.76703 | 22922 ft | 273 kts | 53° |
| 2026-04-29 13:44 | 39.33055 | -0.74750 | 22926 ft | 273 kts | 54° |
| 2026-04-29 13:44 | 39.34200 | -0.72805 | 22929 ft | 272 kts | 54° |
| 2026-04-29 13:44 | 39.35348 | -0.70856 | 22924 ft | 272 kts | 54° |
| 2026-04-29 13:45 | 39.36490 | -0.68914 | 22921 ft | 272 kts | 54° |
| 2026-04-29 13:45 | 39.37619 | -0.66992 | 22943 ft | 272 kts | 54° |
| 2026-04-29 13:45 | 39.38761 | -0.65048 | 22946 ft | 272 kts | 54° |
| 2026-04-29 13:45 | 39.39904 | -0.63102 | 22949 ft | 272 kts | 54° |
| 2026-04-29 13:46 | 39.41045 | -0.61157 | 22961 ft | 272 kts | 54° |
| 2026-04-29 13:46 | 39.42189 | -0.59207 | 22957 ft | 272 kts | 54° |
| 2026-04-29 13:46 | 39.43330 | -0.57259 | 22959 ft | 272 kts | 54° |
| 2026-04-29 13:46 | 39.44472 | -0.55308 | 22965 ft | 272 kts | 54° |
| 2026-04-29 13:47 | 39.45615 | -0.53356 | 22956 ft | 272 kts | 54° |
| 2026-04-29 13:47 | 39.46754 | -0.51409 | 22961 ft | 272 kts | 54° |
| 2026-04-29 13:47 | 39.47895 | -0.49457 | 22956 ft | 272 kts | 54° |
| 2026-04-29 13:47 | 39.49095 | -0.47576 | 22962 ft | 270 kts | 46° |
| 2026-04-29 13:48 | 39.50399 | -0.45824 | 22954 ft | 270 kts | 47° |
| 2026-04-29 13:48 | 39.51691 | -0.44052 | 22955 ft | 271 kts | 47° |
| 2026-04-29 13:48 | 39.52985 | -0.42275 | 22961 ft | 271 kts | 47° |
| 2026-04-29 13:48 | 39.54286 | -0.40499 | 22957 ft | 271 kts | 47° |
| 2026-04-29 13:49 | 39.55586 | -0.38724 | 22937 ft | 272 kts | 47° |
| 2026-04-29 13:49 | 39.56889 | -0.36943 | 22934 ft | 272 kts | 47° |
| 2026-04-29 13:49 | 39.58172 | -0.35187 | 22938 ft | 272 kts | 47° |
| 2026-04-29 13:49 | 39.59473 | -0.33405 | 22939 ft | 272 kts | 47° |
| 2026-04-29 13:50 | 39.60773 | -0.31624 | 22938 ft | 272 kts | 47° |
| 2026-04-29 13:50 | 39.62075 | -0.29838 | 22939 ft | 272 kts | 47° |
| 2026-04-29 13:50 | 39.63379 | -0.28049 | 22939 ft | 272 kts | 47° |
| 2026-04-29 13:50 | 39.64679 | -0.26265 | 22939 ft | 272 kts | 47° |
| 2026-04-29 13:51 | 39.65979 | -0.24480 | 22944 ft | 272 kts | 47° |
| 2026-04-29 13:51 | 39.67280 | -0.22691 | 22940 ft | 272 kts | 47° |
| 2026-04-29 13:51 | 39.68582 | -0.20901 | 22944 ft | 272 kts | 47° |
| 2026-04-29 13:51 | 39.69884 | -0.19111 | 22939 ft | 273 kts | 47° |
| 2026-04-29 13:52 | 39.71183 | -0.17321 | 22943 ft | 272 kts | 47° |
| 2026-04-29 13:52 | 39.72484 | -0.15530 | 22940 ft | 272 kts | 47° |
| 2026-04-29 13:52 | 39.73780 | -0.13744 | 22940 ft | 272 kts | 47° |
| 2026-04-29 13:52 | 39.75079 | -0.11952 | 22946 ft | 272 kts | 47° |
| 2026-04-29 13:53 | 39.76376 | -0.10162 | 22939 ft | 272 kts | 47° |
| 2026-04-29 13:53 | 39.77673 | -0.08372 | 22939 ft | 272 kts | 47° |
| 2026-04-29 13:53 | 39.78971 | -0.06579 | 22944 ft | 272 kts | 47° |
| 2026-04-29 13:53 | 39.80268 | -0.04787 | 22940 ft | 272 kts | 47° |
| 2026-04-29 13:54 | 39.81547 | -0.03016 | 22938 ft | 272 kts | 47° |
| 2026-04-29 13:54 | 39.82846 | -0.01220 | 22939 ft | 272 kts | 48° |
| 2026-04-29 13:54 | 39.84144 | 0.00578 | 22928 ft | 272 kts | 47° |
| 2026-04-29 13:54 | 39.85438 | 0.02372 | 22931 ft | 272 kts | 47° |
| 2026-04-29 13:55 | 39.86731 | 0.04166 | 22937 ft | 272 kts | 47° |
| 2026-04-29 13:55 | 39.88025 | 0.05963 | 22937 ft | 271 kts | 47° |
| 2026-04-29 13:55 | 39.89318 | 0.07759 | 22930 ft | 271 kts | 47° |
| 2026-04-29 13:55 | 39.90607 | 0.09551 | 22929 ft | 271 kts | 47° |
| 2026-04-29 13:56 | 39.91896 | 0.11342 | 22933 ft | 271 kts | 47° |
| 2026-04-29 13:56 | 39.93187 | 0.13139 | 22931 ft | 271 kts | 47° |
| 2026-04-29 13:56 | 39.94476 | 0.14934 | 22928 ft | 271 kts | 47° |
| 2026-04-29 13:56 | 39.95766 | 0.16730 | 22928 ft | 271 kts | 47° |
| 2026-04-29 13:57 | 39.97055 | 0.18527 | 22932 ft | 271 kts | 47° |
| 2026-04-29 13:57 | 39.98343 | 0.20323 | 22932 ft | 271 kts | 47° |
| 2026-04-29 13:57 | 39.99632 | 0.22122 | 22932 ft | 271 kts | 47° |
| 2026-04-29 13:57 | 40.00484 | 0.23312 | 22932 ft | 271 kts | 47° |
| 2026-04-29 13:58 | 40.02209 | 0.25720 | 22929 ft | 271 kts | 47° |
| 2026-04-29 13:58 | 40.03497 | 0.27516 | 22935 ft | 271 kts | 48° |
| 2026-04-29 13:58 | 40.04785 | 0.29316 | 22942 ft | 271 kts | 48° |
| 2026-04-29 13:58 | 40.06071 | 0.31113 | 22940 ft | 271 kts | 48° |
| 2026-04-29 13:59 | 40.07359 | 0.32915 | 22936 ft | 271 kts | 48° |
| 2026-04-29 13:59 | 40.08626 | 0.34689 | 22951 ft | 271 kts | 48° |
| 2026-04-29 13:59 | 40.09913 | 0.36491 | 22944 ft | 271 kts | 48° |
| 2026-04-29 13:59 | 40.11201 | 0.38295 | 22946 ft | 271 kts | 48° |
| 2026-04-29 14:00 | 40.12483 | 0.40093 | 22946 ft | 270 kts | 48° |
| 2026-04-29 14:00 | 40.13763 | 0.41888 | 22941 ft | 270 kts | 48° |
| 2026-04-29 14:00 | 40.15043 | 0.43684 | 22940 ft | 270 kts | 48° |
| 2026-04-29 14:00 | 40.16320 | 0.45478 | 22943 ft | 269 kts | 48° |
| 2026-04-29 14:01 | 40.17595 | 0.47269 | 22944 ft | 269 kts | 48° |
| 2026-04-29 14:01 | 40.18870 | 0.49063 | 22936 ft | 269 kts | 48° |
| 2026-04-29 14:01 | 40.20142 | 0.50853 | 22935 ft | 269 kts | 48° |
| 2026-04-29 14:01 | 40.21414 | 0.52642 | 22936 ft | 269 kts | 48° |
| 2026-04-29 14:02 | 40.22256 | 0.53829 | 22936 ft | 269 kts | 48° |
| 2026-04-29 14:02 | 40.23528 | 0.55622 | 22941 ft | 269 kts | 48° |
| 2026-04-29 14:02 | 40.24800 | 0.57414 | 22935 ft | 269 kts | 48° |
| 2026-04-29 14:02 | 40.26074 | 0.59212 | 22939 ft | 269 kts | 49° |
| 2026-04-29 14:03 | 40.27348 | 0.61011 | 22939 ft | 269 kts | 49° |
| 2026-04-29 14:03 | 40.28618 | 0.62807 | 22943 ft | 269 kts | 49° |
| 2026-04-29 14:03 | 40.29888 | 0.64603 | 22939 ft | 269 kts | 49° |
| 2026-04-29 14:03 | 40.31156 | 0.66396 | 22939 ft | 269 kts | 49° |
| 2026-04-29 14:04 | 40.32427 | 0.68196 | 22945 ft | 269 kts | 49° |
| 2026-04-29 14:04 | 40.33695 | 0.69993 | 22939 ft | 269 kts | 49° |
| 2026-04-29 14:04 | 40.34965 | 0.71793 | 22939 ft | 269 kts | 49° |
| 2026-04-29 14:04 | 40.36230 | 0.73587 | 22939 ft | 269 kts | 49° |
| 2026-04-29 14:05 | 40.37501 | 0.75391 | 22943 ft | 269 kts | 49° |
| 2026-04-29 14:05 | 40.38754 | 0.77170 | 22939 ft | 268 kts | 48° |
| 2026-04-29 14:05 | 40.40019 | 0.78968 | 22938 ft | 268 kts | 48° |
| 2026-04-29 14:05 | 40.41280 | 0.80760 | 22944 ft | 267 kts | 48° |
| 2026-04-29 14:06 | 40.42541 | 0.82554 | 22937 ft | 267 kts | 48° |
| 2026-04-29 14:06 | 40.43800 | 0.84345 | 22937 ft | 267 kts | 48° |
| 2026-04-29 14:06 | 40.45057 | 0.86137 | 22937 ft | 267 kts | 48° |
| 2026-04-29 14:06 | 40.46318 | 0.87934 | 22946 ft | 267 kts | 48° |
| 2026-04-29 14:07 | 40.47573 | 0.89723 | 22950 ft | 267 kts | 48° |
| 2026-04-29 14:07 | 40.48832 | 0.91519 | 22947 ft | 267 kts | 49° |
| 2026-04-29 14:07 | 40.50087 | 0.93311 | 22945 ft | 267 kts | 48° |
| 2026-04-29 14:07 | 40.51328 | 0.95083 | 22945 ft | 267 kts | 48° |
| 2026-04-29 14:08 | 40.52584 | 0.96879 | 22948 ft | 267 kts | 49° |
| 2026-04-29 14:08 | 40.53839 | 0.98674 | 22941 ft | 267 kts | 49° |
| 2026-04-29 14:08 | 40.55099 | 1.00476 | 22948 ft | 267 kts | 49° |
| 2026-04-29 14:08 | 40.56354 | 1.02275 | 22947 ft | 267 kts | 49° |
| 2026-04-29 14:09 | 40.57608 | 1.04075 | 22944 ft | 267 kts | 49° |
| 2026-04-29 14:09 | 40.58864 | 1.05878 | 22944 ft | 267 kts | 49° |
| 2026-04-29 14:09 | 40.60118 | 1.07680 | 22947 ft | 267 kts | 49° |
| 2026-04-29 14:09 | 40.61355 | 1.09459 | 22947 ft | 267 kts | 49° |
| 2026-04-29 14:10 | 40.62611 | 1.11264 | 22947 ft | 267 kts | 49° |
| 2026-04-29 14:10 | 40.63865 | 1.13068 | 22947 ft | 267 kts | 49° |
| 2026-04-29 14:10 | 40.65117 | 1.14872 | 22941 ft | 267 kts | 48° |
| 2026-04-29 14:10 | 40.66368 | 1.16673 | 22946 ft | 266 kts | 48° |
| 2026-04-29 14:11 | 40.67619 | 1.18477 | 22951 ft | 266 kts | 48° |
| 2026-04-29 14:11 | 40.68864 | 1.20273 | 22946 ft | 266 kts | 48° |
| 2026-04-29 14:11 | 40.70112 | 1.22074 | 22946 ft | 265 kts | 48° |
| 2026-04-29 14:11 | 40.71355 | 1.23869 | 22946 ft | 265 kts | 48° |
| 2026-04-29 14:12 | 40.72600 | 1.25666 | 22946 ft | 265 kts | 48° |
| 2026-04-29 14:12 | 40.73844 | 1.27461 | 22946 ft | 265 kts | 48° |
| 2026-04-29 14:12 | 40.75088 | 1.29258 | 22946 ft | 265 kts | 48° |
| 2026-04-29 14:12 | 40.76330 | 1.31053 | 22945 ft | 265 kts | 48° |
| 2026-04-29 14:13 | 40.77571 | 1.32849 | 22945 ft | 265 kts | 48° |
| 2026-04-29 14:13 | 40.78798 | 1.34624 | 22953 ft | 265 kts | 48° |
| 2026-04-29 14:13 | 40.80041 | 1.36424 | 22944 ft | 265 kts | 48° |
| 2026-04-29 14:13 | 40.81284 | 1.38224 | 22949 ft | 265 kts | 48° |
| 2026-04-29 14:14 | 40.82525 | 1.40024 | 22946 ft | 265 kts | 48° |
| 2026-04-29 14:14 | 40.83766 | 1.41825 | 22941 ft | 265 kts | 48° |
| 2026-04-29 14:14 | 40.85007 | 1.43626 | 22942 ft | 265 kts | 48° |
| 2026-04-29 14:14 | 40.86247 | 1.45426 | 22942 ft | 265 kts | 48° |
| 2026-04-29 14:15 | 40.87489 | 1.47231 | 22949 ft | 265 kts | 48° |
| 2026-04-29 14:15 | 40.88727 | 1.49035 | 22944 ft | 265 kts | 48° |
| 2026-04-29 14:15 | 40.89968 | 1.50843 | 22957 ft | 265 kts | 49° |
| 2026-04-29 14:15 | 40.91205 | 1.52644 | 22954 ft | 265 kts | 49° |
| 2026-04-29 14:16 | 40.92443 | 1.54449 | 22949 ft | 264 kts | 49° |
| 2026-04-29 14:16 | 40.93678 | 1.56250 | 22948 ft | 264 kts | 49° |
| 2026-04-29 14:16 | 40.94913 | 1.58054 | 22947 ft | 265 kts | 49° |
| 2026-04-29 14:16 | 40.96150 | 1.59860 | 22950 ft | 264 kts | 49° |
| 2026-04-29 14:17 | 40.97367 | 1.61639 | 22945 ft | 265 kts | 49° |
| 2026-04-29 14:17 | 40.98603 | 1.63445 | 22945 ft | 265 kts | 49° |
| 2026-04-29 14:17 | 40.99837 | 1.65252 | 22946 ft | 264 kts | 49° |
| 2026-04-29 14:17 | 41.01073 | 1.67061 | 22944 ft | 265 kts | 49° |
| 2026-04-29 14:18 | 41.02308 | 1.68871 | 22944 ft | 265 kts | 49° |
| 2026-04-29 14:18 | 41.03542 | 1.70680 | 22947 ft | 264 kts | 49° |
| 2026-04-29 14:18 | 41.04774 | 1.72486 | 22950 ft | 265 kts | 49° |
| 2026-04-29 14:18 | 41.06008 | 1.74297 | 22950 ft | 264 kts | 49° |
| 2026-04-29 14:19 | 41.07239 | 1.76104 | 22948 ft | 264 kts | 49° |
| 2026-04-29 14:19 | 41.08471 | 1.77914 | 22953 ft | 264 kts | 49° |
| 2026-04-29 14:19 | 41.09704 | 1.79725 | 22954 ft | 264 kts | 49° |
| 2026-04-29 14:19 | 41.10935 | 1.81536 | 22961 ft | 264 kts | 49° |
| 2026-04-29 14:20 | 41.12166 | 1.83347 | 22951 ft | 265 kts | 49° |
| 2026-04-29 14:20 | 41.13397 | 1.85160 | 22953 ft | 264 kts | 49° |
| 2026-04-29 14:20 | 41.14626 | 1.86971 | 22953 ft | 264 kts | 49° |
| 2026-04-29 14:20 | 41.15857 | 1.88785 | 22973 ft | 264 kts | 49° |
| 2026-04-29 14:21 | 41.17084 | 1.90596 | 22973 ft | 264 kts | 49° |
| 2026-04-29 14:21 | 41.18312 | 1.92408 | 22974 ft | 264 kts | 49° |
| 2026-04-29 14:21 | 41.19540 | 1.94222 | 22974 ft | 264 kts | 49° |
| 2026-04-29 14:21 | 41.20767 | 1.96035 | 22977 ft | 264 kts | 49° |
| 2026-04-29 14:22 | 41.21991 | 1.97844 | 22981 ft | 263 kts | 49° |
| 2026-04-29 14:22 | 41.23203 | 1.99637 | 22977 ft | 264 kts | 49° |
| 2026-04-29 14:22 | 41.24425 | 2.01448 | 22983 ft | 264 kts | 49° |
| 2026-04-29 14:22 | 41.25651 | 2.03263 | 22983 ft | 263 kts | 49° |
| 2026-04-29 14:23 | 41.26875 | 2.05077 | 22982 ft | 264 kts | 49° |
| 2026-04-29 14:23 | 41.28100 | 2.06894 | 22979 ft | 263 kts | 49° |
| 2026-04-29 14:23 | 41.29323 | 2.08709 | 22977 ft | 263 kts | 50° |
| 2026-04-29 14:23 | 41.30532 | 2.10540 | 22973 ft | 262 kts | 54° |
| 2026-04-29 14:24 | 41.31378 | 2.12646 | 22990 ft | 258 kts | 67° |
| 2026-04-29 14:24 | 41.32126 | 2.14817 | 22989 ft | 258 kts | 68° |
| 2026-04-29 14:24 | 41.32880 | 2.16991 | 22991 ft | 259 kts | 67° |
| 2026-04-29 14:24 | 41.33642 | 2.19174 | 22993 ft | 260 kts | 67° |
| 2026-04-29 14:25 | 41.34402 | 2.21357 | 22985 ft | 260 kts | 67° |
| 2026-04-29 14:25 | 41.35160 | 2.23540 | 22987 ft | 260 kts | 67° |
| 2026-04-29 14:25 | 41.35922 | 2.25735 | 22986 ft | 260 kts | 67° |
| 2026-04-29 14:25 | 41.36671 | 2.27893 | 22986 ft | 260 kts | 68° |
| 2026-04-29 14:26 | 41.37431 | 2.30084 | 22987 ft | 261 kts | 67° |
| 2026-04-29 14:26 | 41.38190 | 2.32275 | 22987 ft | 261 kts | 66° |
| 2026-04-29 14:26 | 41.38950 | 2.34470 | 22987 ft | 261 kts | 66° |
| 2026-04-29 14:26 | 41.39711 | 2.36671 | 22986 ft | 261 kts | 66° |
| 2026-04-29 14:27 | 41.40472 | 2.38872 | 22984 ft | 261 kts | 66° |
| 2026-04-29 14:27 | 41.41232 | 2.41072 | 22988 ft | 261 kts | 66° |
| 2026-04-29 14:27 | 41.41992 | 2.43276 | 22987 ft | 262 kts | 67° |
| 2026-04-29 14:28 | 41.43513 | 2.47689 | 22982 ft | 262 kts | 67° |
| 2026-04-29 14:28 | 41.44266 | 2.49874 | 22980 ft | 262 kts | 67° |
| 2026-04-29 14:28 | 41.45023 | 2.52077 | 22980 ft | 262 kts | 66° |
| 2026-04-29 14:28 | 41.45784 | 2.54289 | 22980 ft | 262 kts | 66° |
| 2026-04-29 14:29 | 41.46543 | 2.56497 | 22980 ft | 262 kts | 67° |
| 2026-04-29 14:29 | 41.47300 | 2.58706 | 22981 ft | 262 kts | 67° |
| 2026-04-29 14:29 | 41.48060 | 2.60921 | 22980 ft | 262 kts | 67° |
| 2026-04-29 14:29 | 41.48817 | 2.63130 | 22980 ft | 262 kts | 67° |
| 2026-04-29 14:30 | 41.49574 | 2.65343 | 22980 ft | 262 kts | 67° |
| 2026-04-29 14:30 | 41.50331 | 2.67554 | 22980 ft | 262 kts | 66° |
| 2026-04-29 14:30 | 41.51086 | 2.69761 | 22980 ft | 262 kts | 66° |
| 2026-04-29 14:30 | 41.51840 | 2.71970 | 22981 ft | 261 kts | 66° |
| 2026-04-29 14:31 | 41.52592 | 2.74174 | 22982 ft | 261 kts | 66° |
| 2026-04-29 14:31 | 41.53342 | 2.76372 | 22979 ft | 261 kts | 67° |
| 2026-04-29 14:31 | 41.54094 | 2.78580 | 22979 ft | 261 kts | 66° |
| 2026-04-29 14:31 | 41.54844 | 2.80781 | 22980 ft | 260 kts | 67° |
| 2026-04-29 14:32 | 41.55592 | 2.82980 | 22978 ft | 260 kts | 67° |
| 2026-04-29 14:32 | 41.56331 | 2.85153 | 22978 ft | 260 kts | 66° |
| 2026-04-29 14:32 | 41.57088 | 2.87381 | 22979 ft | 260 kts | 66° |
| 2026-04-29 14:32 | 41.57835 | 2.89583 | 22979 ft | 260 kts | 67° |
| 2026-04-29 14:33 | 41.58580 | 2.91780 | 22978 ft | 260 kts | 67° |
| 2026-04-29 14:33 | 41.59317 | 2.93954 | 22979 ft | 260 kts | 67° |
| 2026-04-29 14:33 | 41.60062 | 2.96153 | 22978 ft | 260 kts | 67° |
| 2026-04-29 14:33 | 41.60806 | 2.98354 | 22978 ft | 260 kts | 67° |
| 2026-04-29 14:34 | 41.61551 | 3.00556 | 22976 ft | 260 kts | 66° |
| 2026-04-29 14:34 | 41.62294 | 3.02758 | 22976 ft | 260 kts | 67° |
| 2026-04-29 14:34 | 41.63038 | 3.04961 | 22975 ft | 260 kts | 67° |
| 2026-04-29 14:34 | 41.63780 | 3.07161 | 22977 ft | 259 kts | 66° |
| 2026-04-29 14:35 | 41.64522 | 3.09362 | 22978 ft | 259 kts | 66° |
| 2026-04-29 14:35 | 41.65260 | 3.11555 | 22980 ft | 259 kts | 66° |
| 2026-04-29 14:35 | 41.65999 | 3.13751 | 22980 ft | 258 kts | 66° |
| 2026-04-29 14:35 | 41.66737 | 3.15946 | 22980 ft | 258 kts | 66° |
| 2026-04-29 14:36 | 41.67463 | 3.18108 | 22979 ft | 258 kts | 66° |
| 2026-04-29 14:36 | 41.68198 | 3.20297 | 22979 ft | 258 kts | 66° |
| 2026-04-29 14:36 | 41.68933 | 3.22489 | 22976 ft | 258 kts | 66° |
| 2026-04-29 14:36 | 41.69668 | 3.24681 | 22976 ft | 258 kts | 67° |
| 2026-04-29 14:37 | 41.70402 | 3.26873 | 22976 ft | 258 kts | 67° |
| 2026-04-29 14:37 | 41.71145 | 3.29095 | 22976 ft | 258 kts | 67° |
| 2026-04-29 14:37 | 41.71877 | 3.31286 | 22975 ft | 258 kts | 67° |
| 2026-04-29 14:37 | 41.72610 | 3.33480 | 22976 ft | 258 kts | 67° |
| 2026-04-29 14:38 | 41.73341 | 3.35670 | 22977 ft | 258 kts | 67° |
| 2026-04-29 14:38 | 41.74062 | 3.37832 | 22977 ft | 257 kts | 67° |
| 2026-04-29 14:38 | 41.74792 | 3.40023 | 22977 ft | 257 kts | 67° |
| 2026-04-29 14:38 | 41.75520 | 3.42206 | 22977 ft | 257 kts | 67° |
| 2026-04-29 14:39 | 41.76248 | 3.44395 | 22976 ft | 257 kts | 67° |
| 2026-04-29 14:39 | 41.76975 | 3.46581 | 22976 ft | 257 kts | 67° |
| 2026-04-29 14:39 | 41.77703 | 3.48771 | 22977 ft | 257 kts | 67° |
| 2026-04-29 14:39 | 41.78430 | 3.50961 | 22977 ft | 257 kts | 67° |
| 2026-04-29 14:40 | 41.79155 | 3.53148 | 22977 ft | 257 kts | 67° |
| 2026-04-29 14:40 | 41.79881 | 3.55338 | 22977 ft | 257 kts | 67° |
| 2026-04-29 14:40 | 41.80606 | 3.57527 | 22976 ft | 257 kts | 67° |
| 2026-04-29 14:40 | 41.81322 | 3.59690 | 22976 ft | 257 kts | 67° |
| 2026-04-29 14:41 | 41.82045 | 3.61876 | 22982 ft | 257 kts | 67° |
| 2026-04-29 14:41 | 41.82777 | 3.64092 | 22982 ft | 257 kts | 67° |
| 2026-04-29 14:41 | 41.83490 | 3.66252 | 22982 ft | 257 kts | 67° |
| 2026-04-29 14:41 | 41.84213 | 3.68442 | 22982 ft | 257 kts | 67° |
| 2026-04-29 14:42 | 41.84936 | 3.70637 | 22980 ft | 257 kts | 67° |
| 2026-04-29 14:42 | 41.85657 | 3.72827 | 22979 ft | 257 kts | 67° |
| 2026-04-29 14:42 | 41.86378 | 3.75019 | 22980 ft | 257 kts | 67° |
| 2026-04-29 14:42 | 41.87099 | 3.77210 | 22980 ft | 257 kts | 67° |
| 2026-04-29 14:43 | 41.87820 | 3.79403 | 22976 ft | 257 kts | 67° |
| 2026-04-29 14:43 | 41.88540 | 3.81599 | 22976 ft | 257 kts | 67° |
| 2026-04-29 14:43 | 41.89259 | 3.83789 | 22975 ft | 257 kts | 67° |
| 2026-04-29 14:43 | 41.89978 | 3.85982 | 22975 ft | 257 kts | 67° |
| 2026-04-29 14:44 | 41.90698 | 3.88181 | 22979 ft | 257 kts | 67° |
| 2026-04-29 14:44 | 41.91416 | 3.90377 | 22979 ft | 257 kts | 68° |
| 2026-04-29 14:44 | 41.92135 | 3.92574 | 22980 ft | 257 kts | 68° |
| 2026-04-29 14:44 | 41.92851 | 3.94766 | 22982 ft | 256 kts | 68° |
| 2026-04-29 14:45 | 41.93567 | 3.96959 | 22980 ft | 255 kts | 68° |
| 2026-04-29 14:45 | 41.94279 | 3.99143 | 22979 ft | 255 kts | 68° |
| 2026-04-29 14:45 | 41.94979 | 4.01295 | 22978 ft | 255 kts | 68° |
| 2026-04-29 14:45 | 41.95690 | 4.03478 | 22979 ft | 255 kts | 68° |
| 2026-04-29 14:46 | 41.96399 | 4.05659 | 22983 ft | 255 kts | 68° |
| 2026-04-29 14:46 | 41.97108 | 4.07839 | 22983 ft | 255 kts | 68° |
| 2026-04-29 14:46 | 41.97816 | 4.10020 | 22983 ft | 254 kts | 68° |
| 2026-04-29 14:46 | 41.98525 | 4.12203 | 22983 ft | 254 kts | 68° |
| 2026-04-29 14:47 | 41.99232 | 4.14385 | 22985 ft | 254 kts | 67° |
| 2026-04-29 14:47 | 41.99938 | 4.16566 | 22986 ft | 254 kts | 68° |
| 2026-04-29 14:47 | 42.00643 | 4.18743 | 22986 ft | 254 kts | 68° |
| 2026-04-29 14:47 | 42.01111 | 4.20189 | 22979 ft | 254 kts | 68° |
| 2026-04-29 14:48 | 42.02053 | 4.23105 | 22977 ft | 254 kts | 68° |
| 2026-04-29 14:48 | 42.02748 | 4.25255 | 22977 ft | 253 kts | 68° |
| 2026-04-29 14:48 | 42.03458 | 4.27456 | 22976 ft | 253 kts | 68° |
| 2026-04-29 14:48 | 42.04149 | 4.29602 | 22976 ft | 253 kts | 68° |
| 2026-04-29 14:49 | 42.04849 | 4.31774 | 22973 ft | 253 kts | 68° |
| 2026-04-29 14:49 | 42.05550 | 4.33951 | 22973 ft | 253 kts | 69° |
| 2026-04-29 14:49 | 42.06250 | 4.36128 | 22973 ft | 253 kts | 68° |
| 2026-04-29 14:49 | 42.06948 | 4.38300 | 22974 ft | 253 kts | 68° |
| 2026-04-29 14:50 | 42.07412 | 4.39743 | 22977 ft | 253 kts | 68° |
| 2026-04-29 14:50 | 42.08270 | 4.41796 | 22975 ft | 253 kts | 49° |
| 2026-04-29 14:50 | 42.09553 | 4.43412 | 22984 ft | 253 kts | 42° |
| 2026-04-29 14:50 | 42.10875 | 4.44985 | 22985 ft | 254 kts | 42° |
| 2026-04-29 14:51 | 42.12198 | 4.46563 | 22982 ft | 255 kts | 42° |
| 2026-04-29 14:51 | 42.13521 | 4.48154 | 22986 ft | 255 kts | 43° |
| 2026-04-29 14:51 | 42.14847 | 4.49751 | 22983 ft | 255 kts | 43° |
| 2026-04-29 14:51 | 42.16186 | 4.51327 | 22983 ft | 256 kts | 42° |
| 2026-04-29 14:52 | 42.17533 | 4.52886 | 22982 ft | 255 kts | 42° |
| 2026-04-29 14:52 | 42.18835 | 4.54512 | 22982 ft | 255 kts | 44° |
| 2026-04-29 14:52 | 42.20126 | 4.56127 | 22987 ft | 256 kts | 43° |
| 2026-04-29 14:52 | 42.21456 | 4.57725 | 22979 ft | 256 kts | 42° |
| 2026-04-29 14:53 | 42.22787 | 4.59315 | 22982 ft | 256 kts | 43° |
| 2026-04-29 14:53 | 42.24116 | 4.60918 | 22981 ft | 256 kts | 43° |
| 2026-04-29 14:53 | 42.25446 | 4.62530 | 22982 ft | 256 kts | 42° |
| 2026-04-29 14:53 | 42.26774 | 4.64137 | 22983 ft | 256 kts | 42° |
| 2026-04-29 14:54 | 42.28104 | 4.65744 | 22985 ft | 257 kts | 42° |
| 2026-04-29 14:54 | 42.29437 | 4.67356 | 22987 ft | 257 kts | 42° |
| 2026-04-29 14:54 | 42.30767 | 4.68968 | 22987 ft | 257 kts | 43° |
| 2026-04-29 14:54 | 42.32102 | 4.70585 | 22984 ft | 258 kts | 42° |
| 2026-04-29 14:55 | 42.33434 | 4.72200 | 22988 ft | 256 kts | 42° |
| 2026-04-29 14:55 | 42.34758 | 4.73806 | 22798 ft | 259 kts | 42° |
| 2026-04-29 14:55 | 42.36127 | 4.75469 | 22396 ft | 269 kts | 42° |
| 2026-04-29 14:55 | 42.37513 | 4.77152 | 22022 ft | 274 kts | 42° |
| 2026-04-29 14:56 | 42.38941 | 4.78888 | 21625 ft | 278 kts | 42° |
| 2026-04-29 14:56 | 42.40389 | 4.80649 | 21226 ft | 282 kts | 42° |
| 2026-04-29 14:56 | 42.41851 | 4.82428 | 20834 ft | 283 kts | 42° |
| 2026-04-29 14:56 | 42.43318 | 4.84214 | 20443 ft | 285 kts | 42° |
| 2026-04-29 14:57 | 42.44791 | 4.86010 | 20057 ft | 285 kts | 41° |
| 2026-04-29 14:57 | 42.46267 | 4.87809 | 19675 ft | 285 kts | 41° |
| 2026-04-29 14:57 | 42.47744 | 4.89611 | 19293 ft | 286 kts | 41° |
| 2026-04-29 14:57 | 42.49222 | 4.91416 | 18918 ft | 286 kts | 41° |
| 2026-04-29 14:58 | 42.50694 | 4.93215 | 18549 ft | 285 kts | 41° |
| 2026-04-29 14:58 | 42.52169 | 4.95019 | 18170 ft | 286 kts | 40° |
| 2026-04-29 14:58 | 42.53642 | 4.96820 | 17745 ft | 284 kts | 41° |
| 2026-04-29 14:58 | 42.55119 | 4.98578 | 17323 ft | 280 kts | 35° |
| 2026-04-29 14:59 | 42.56858 | 4.99707 | 16911 ft | 276 kts | 11° |
| 2026-04-29 14:59 | 42.58736 | 5.00044 | 16547 ft | 271 kts | 1° |
| 2026-04-29 14:59 | 42.60604 | 5.00233 | 16264 ft | 268 kts | 1° |
| 2026-04-29 14:59 | 42.62429 | 5.00419 | 16015 ft | 265 kts | 1° |
| 2026-04-29 15:00 | 42.64262 | 5.00616 | 15762 ft | 263 kts | 1° |
| 2026-04-29 15:00 | 42.66086 | 5.00814 | 15516 ft | 262 kts | 2° |
| 2026-04-29 15:00 | 42.67903 | 5.01009 | 15271 ft | 261 kts | 2° |
| 2026-04-29 15:00 | 42.69701 | 5.01202 | 15147 ft | 257 kts | 1° |
| 2026-04-29 15:01 | 42.71480 | 5.01393 | 15024 ft | 256 kts | 1° |
| 2026-04-29 15:01 | 42.73252 | 5.01583 | 14989 ft | 253 kts | 1° |
| 2026-04-29 15:01 | 42.75001 | 5.01771 | 14985 ft | 251 kts | 2° |
| 2026-04-29 15:01 | 42.76738 | 5.01957 | 14985 ft | 250 kts | 1° |
| 2026-04-29 15:02 | 42.78465 | 5.02142 | 14982 ft | 248 kts | 1° |
| 2026-04-29 15:02 | 42.80185 | 5.02365 | 14977 ft | 247 kts | 8° |
| 2026-04-29 15:02 | 42.81782 | 5.03232 | 14983 ft | 249 kts | 24° |
| 2026-04-29 15:02 | 42.83334 | 5.04301 | 14741 ft | 259 kts | 25° |
| 2026-04-29 15:03 | 42.84963 | 5.05420 | 14396 ft | 264 kts | 25° |
| 2026-04-29 15:03 | 42.86618 | 5.06552 | 14051 ft | 268 kts | 24° |
| 2026-04-29 15:03 | 42.88295 | 5.07696 | 13696 ft | 271 kts | 24° |
| 2026-04-29 15:03 | 42.89994 | 5.08856 | 13309 ft | 274 kts | 24° |
| 2026-04-29 15:04 | 42.91707 | 5.10030 | 12925 ft | 276 kts | 24° |
| 2026-04-29 15:04 | 42.93441 | 5.11126 | 12545 ft | 272 kts | 14° |
| 2026-04-29 15:04 | 42.95292 | 5.11417 | 12165 ft | 266 kts | 353° |
| 2026-04-29 15:04 | 42.97087 | 5.10923 | 11800 ft | 261 kts | 341° |
| 2026-04-29 15:05 | 42.98844 | 5.10302 | 11438 ft | 261 kts | 341° |
| 2026-04-29 15:05 | 43.00601 | 5.09683 | 11074 ft | 261 kts | 341° |
| 2026-04-29 15:05 | 43.02358 | 5.09073 | 10711 ft | 259 kts | 341° |
| 2026-04-29 15:05 | 43.04104 | 5.08468 | 10352 ft | 258 kts | 342° |
| 2026-04-29 15:06 | 43.05849 | 5.07862 | 9995 ft | 257 kts | 341° |
| 2026-04-29 15:06 | 43.07575 | 5.07260 | 9616 ft | 255 kts | 341° |
| 2026-04-29 15:06 | 43.09294 | 5.06660 | 9227 ft | 254 kts | 342° |
| 2026-04-29 15:06 | 43.10979 | 5.06073 | 8848 ft | 252 kts | 342° |
| 2026-04-29 15:07 | 43.12678 | 5.05480 | 8469 ft | 252 kts | 343° |
| 2026-04-29 15:07 | 43.14361 | 5.04892 | 8213 ft | 247 kts | 343° |
| 2026-04-29 15:07 | 43.16027 | 5.04310 | 7959 ft | 245 kts | 344° |
| 2026-04-29 15:07 | 43.17676 | 5.03733 | 7713 ft | 244 kts | 344° |
| 2026-04-29 15:08 | 43.19304 | 5.03164 | 7592 ft | 239 kts | 344° |
| 2026-04-29 15:08 | 43.20911 | 5.02684 | 7464 ft | 234 kts | 354° |
| 2026-04-29 15:08 | 43.22532 | 5.02567 | 7340 ft | 233 kts | 356° |
| 2026-04-29 15:08 | 43.24151 | 5.02463 | 7216 ft | 233 kts | 356° |
| 2026-04-29 15:09 | 43.25774 | 5.02340 | 7093 ft | 234 kts | 356° |
| 2026-04-29 15:09 | 43.27402 | 5.02218 | 6981 ft | 234 kts | 356° |
| 2026-04-29 15:09 | 43.29029 | 5.02099 | 6860 ft | 235 kts | 356° |
| 2026-04-29 15:09 | 43.30659 | 5.01979 | 6740 ft | 234 kts | 356° |
| 2026-04-29 15:10 | 43.32271 | 5.01860 | 6617 ft | 234 kts | 358° |
| 2026-04-29 15:10 | 43.33896 | 5.01797 | 6495 ft | 232 kts | 4° |
| 2026-04-29 15:10 | 43.35510 | 5.01899 | 6375 ft | 233 kts | 2° |
| 2026-04-29 15:10 | 43.37134 | 5.01958 | 6251 ft | 234 kts | 3° |
| 2026-04-29 15:11 | 43.38758 | 5.02028 | 6143 ft | 234 kts | 5° |
| 2026-04-29 15:11 | 43.40387 | 5.02109 | 5998 ft | 234 kts | 4° |
| 2026-04-29 15:11 | 43.42017 | 5.02185 | 5825 ft | 234 kts | 3° |
| 2026-04-29 15:11 | 43.43605 | 5.01721 | 5651 ft | 238 kts | 336° |
| 2026-04-29 15:12 | 43.44930 | 5.00359 | 5485 ft | 240 kts | 319° |
| 2026-04-29 15:12 | 43.45730 | 4.99294 | 5371 ft | 243 kts | 318° |
| 2026-04-29 15:12 | 43.47347 | 4.97112 | 5145 ft | 244 kts | 318° |
| 2026-04-29 15:12 | 43.48567 | 4.95488 | 5020 ft | 242 kts | 319° |
| 2026-04-29 15:13 | 43.49769 | 4.93893 | 5015 ft | 238 kts | 317° |
| 2026-04-29 15:13 | 43.50949 | 4.92323 | 5012 ft | 236 kts | 317° |
| 2026-04-29 15:13 | 43.52128 | 4.90750 | 5011 ft | 235 kts | 317° |
| 2026-04-29 15:13 | 43.53288 | 4.89203 | 5006 ft | 235 kts | 317° |
| 2026-04-29 15:14 | 43.54460 | 4.87640 | 5004 ft | 234 kts | 317° |
| 2026-04-29 15:14 | 43.55702 | 4.86227 | 5008 ft | 229 kts | 334° |
| 2026-04-29 15:14 | 43.57213 | 4.85626 | 4914 ft | 225 kts | 0° |
| 2026-04-29 15:14 | 43.58726 | 4.85944 | 4830 ft | 218 kts | 25° |
| 2026-04-29 15:15 | 43.59979 | 4.87050 | 4587 ft | 214 kts | 49° |
| 2026-04-29 15:15 | 43.60831 | 4.88702 | 4356 ft | 211 kts | 64° |
| 2026-04-29 15:15 | 43.61562 | 4.90446 | 4149 ft | 206 kts | 63° |
| 2026-04-29 15:15 | 43.62218 | 4.92133 | 3987 ft | 191 kts | 74° |
| 2026-04-29 15:16 | 43.62355 | 4.93853 | 3972 ft | 175 kts | 100° |
| 2026-04-29 15:16 | 43.61960 | 4.95358 | 3974 ft | 163 kts | 122° |
| 2026-04-29 15:16 | 43.61227 | 4.96504 | 4012 ft | 157 kts | 136° |
| 2026-04-29 15:16 | 43.60406 | 4.97464 | 4007 ft | 151 kts | 137° |
| 2026-04-29 15:17 | 43.59675 | 4.98442 | 4001 ft | 142 kts | 133° |
| 2026-04-29 15:17 | 43.59003 | 4.99427 | 3910 ft | 142 kts | 131° |
| 2026-04-29 15:17 | 43.58338 | 5.00450 | 3808 ft | 145 kts | 129° |
| 2026-04-29 15:17 | 43.57666 | 5.01521 | 3674 ft | 150 kts | 132° |
| 2026-04-29 15:18 | 43.56934 | 5.02565 | 3506 ft | 153 kts | 133° |
| 2026-04-29 15:18 | 43.56187 | 5.03621 | 3349 ft | 154 kts | 134° |
| 2026-04-29 15:18 | 43.55454 | 5.04673 | 3202 ft | 147 kts | 134° |
| 2026-04-29 15:18 | 43.54741 | 5.05658 | 2987 ft | 144 kts | 135° |
| 2026-04-29 15:19 | 43.54047 | 5.06672 | 2747 ft | 147 kts | 133° |
| 2026-04-29 15:19 | 43.53367 | 5.07707 | 2496 ft | 144 kts | 135° |
| 2026-04-29 15:19 | 43.52673 | 5.08699 | 2279 ft | 143 kts | 137° |
| 2026-04-29 15:19 | 43.51994 | 5.09661 | 2045 ft | 140 kts | 135° |
| 2026-04-29 15:20 | 43.51309 | 5.10596 | 1837 ft | 136 kts | 135° |
| 2026-04-29 15:20 | 43.50668 | 5.11529 | 1703 ft | 134 kts | 135° |
| 2026-04-29 15:20 | 43.50000 | 5.12475 | 1546 ft | 142 kts | 135° |
| 2026-04-29 15:20 | 43.49315 | 5.13480 | 1353 ft | 143 kts | 135° |
| 2026-04-29 15:21 | 43.48638 | 5.14427 | 1157 ft | 135 kts | 136° |
| 2026-04-29 15:21 | 43.48011 | 5.15337 | 998 ft | 125 kts | 135° |
| 2026-04-29 15:21 | 43.47443 | 5.16148 | 824 ft | 112 kts | 139° |
| 2026-04-29 15:21 | 43.46912 | 5.16862 | 665 ft | 99 kts | 136° |
| 2026-04-29 15:22 | 43.46441 | 5.17551 | 549 ft | 103 kts | 135° |
| 2026-04-29 15:22 | 43.45943 | 5.18283 | 419 ft | 106 kts | 140° |
| 2026-04-29 15:22 | 43.45434 | 5.19002 | 252 ft | 103 kts | 136° |
| 2026-04-29 15:22 | 43.44942 | 5.19700 | 124 ft | 103 kts | 140° |
| 2026-04-29 15:23 | 43.44464 | 5.20380 | 28 ft | 90 kts | 141° |
| 2026-04-29 15:23 | 43.44084 | 5.20905 | 15 ft | 65 kts | 133° |
| 2026-04-29 15:23 | 43.43839 | 5.21266 | 28 ft | 36 kts | 131° |
| 2026-04-29 15:23 | 43.43657 | 5.21523 | 35 ft | 40 kts | 136° |
| 2026-04-29 15:24 | 43.43458 | 5.21807 | 41 ft | 43 kts | 132° |
| 2026-04-29 15:24 | 43.43338 | 5.22037 | 47 ft | 23 kts | 102° |
| 2026-04-29 15:24 | 43.43340 | 5.22229 | 49 ft | 14 kts | 69° |
| 2026-04-29 15:24 | 43.43436 | 5.22266 | 48 ft | 21 kts | 333° |
| 2026-04-29 15:25 | 43.43576 | 5.22156 | 44 ft | 28 kts | 330° |
| 2026-04-29 15:25 | 43.43720 | 5.22042 | 39 ft | 21 kts | 330° |
| 2026-04-29 15:25 | 43.43817 | 5.21933 | 36 ft | 23 kts | 313° |
| 2026-04-29 15:25 | 43.43926 | 5.21781 | 32 ft | 22 kts | 313° |
| 2026-04-29 15:26 | 43.43981 | 5.21671 | 29 ft | 15 kts | 267° |
| 2026-04-29 15:26 | 43.43919 | 5.21536 | 29 ft | 18 kts | 262° |
| 2026-04-29 15:26 | 43.44002 | 5.21369 | 25 ft | 24 kts | 314° |
| 2026-04-29 15:26 | 43.44077 | 5.21263 | 22 ft | 9 kts | 314° |
| 2026-04-29 15:27 | 43.44095 | 5.21236 | 21 ft | 1 kts | 313° |
| 2026-04-29 15:27 | 43.44098 | 5.21232 | 21 ft | 1 kts | 313° |
| 2026-04-29 15:27 | 43.44135 | 5.21181 | 20 ft | 14 kts | 321° |
| 2026-04-29 15:27 | 43.44209 | 5.21197 | 19 ft | 9 kts | 48° |
| 2026-04-29 15:28 | 43.44246 | 5.21275 | 19 ft | 11 kts | 28° |
| 2026-04-29 15:28 | 43.44288 | 5.21267 | 18 ft | 7 kts | 345° |
| 2026-04-29 15:28 | 43.44317 | 5.21312 | 18 ft | 0 kts | 63° |
| 2026-04-29 15:28 | 43.44317 | 5.21313 | 18 ft | 0 kts | 63° |
| 2026-04-29 15:47 | 43.44317 | 5.21312 | 18 ft | 1 kts | 63° |
| 2026-04-29 15:47 | 43.44314 | 5.21305 | 18 ft | 1 kts | 38° |
| 2026-04-29 15:47 | 43.44312 | 5.21304 | 18 ft | 0 kts | 25° |